Time;durP1;ratioP1;P1;durP2;ratioP2;P2;SDS_P1;SDS_P2;PMS_P1;PMS_P2;Temp;Humidity;BMP_temperature;BMP_pressure;BME280_temperature;BME280_humidity;BME280_pressure;Samples;Min_cycle;Max_cycle;Signal;HPM_P1;HPM_P2
2023/09/01 00:02:23;;;;;;;;;;;;;;;;;;5072427;28;19932;-69
2023/09/01 00:04:50;;;;;;;;;;;;;;;;;;5072491;28;19924;-69
2023/09/01 00:07:17;;;;;;;;;;;;;;;;;;5072539;28;20422;-69
2023/09/01 00:09:44;;;;;;;;;;;;;;;;;;5087044;28;19944;-69
2023/09/01 00:12:11;;;;;;;;;;;;;;;;;;5072112;28;19925;-69
2023/09/01 00:14:38;;;;;;;;;;;;;;;;;;5073342;28;19990;-69
2023/09/01 00:17:05;;;;;;;;;;;;;;;;;;5072428;28;19931;-69
2023/09/01 00:19:34;;;;;;;;;;;;;;;;;;5071636;28;20613;-69
2023/09/01 00:22:02;;;;;;;;;;;;;;;;;;5072050;28;19925;-69
2023/09/01 00:24:30;;;;;;;;;;;;;;;;;;5072957;28;19955;-69
2023/09/01 00:26:57;;;;;;;;;;;;;;;;;;5071057;28;19963;-69
2023/09/01 00:29:24;;;;;;;;;;;;;;;;;;5073045;28;19947;-69
2023/09/01 00:31:51;;;;;;;;;;;;;;;;;;5071672;28;20140;-68
2023/09/01 00:34:18;;;;;;;;;;;;;;;;;;5071053;28;19976;-68
2023/09/01 00:36:49;;;;;;;;;;;;;;;;;;5071946;28;19932;-68
2023/09/01 00:39:16;;;;;;;;;;;;;;;;;;5072543;28;20015;-70
2023/09/01 00:41:43;;;;;;;;;;;;;;;;;;5072338;28;20390;-69
2023/09/01 00:44:13;;;;;;;;;;;;;;;;;;5073233;28;19970;-68
2023/09/01 00:46:43;;;;;;;;;;;;;;;;;;5072442;28;19924;-69
2023/09/01 00:49:11;;;;;;;;;;;;;;;;;;5071958;28;20406;-69
2023/09/01 00:51:38;;;;;;;;;;;;;;;;;;5072674;28;20337;-70
2023/09/01 00:54:05;;;;;;;;;;;;;;;;;;5069932;28;19932;-69
2023/09/01 00:56:32;;;;;;;;;;;;;;;;;;5072356;28;20326;-69
2023/09/01 00:58:59;;;;;;;;;;;;;;;;;;5073111;28;19924;-70
2023/09/01 01:01:26;;;;;;;;;;;;;;;;;;5072286;28;20367;-70
2023/09/01 01:03:53;;;;;;;;;;;;;;;;;;5071557;28;19925;-70
2023/09/01 01:06:20;;;;;;;;;;;;;;;;;;5071696;28;19925;-70
2023/09/01 01:08:47;;;;;;;;;;;;;;;;;;5072524;28;19978;-70
2023/09/01 01:11:14;;;;;;;;;;;;;;;;;;5070966;28;19924;-70
2023/09/01 01:13:41;;;;;;;;;;;;;;;;;;5072374;28;20306;-70
2023/09/01 01:16:08;;;;;;;;;;;;;;;;;;5075238;28;19928;-69
2023/09/01 01:18:35;;;;;;;;;;;;;;;;;;5070527;28;20433;-70
2023/09/01 01:21:04;;;;;;;;;;;;;;;;;;5071421;28;19977;-70
2023/09/01 01:23:31;;;;;;;;;;;;;;;;;;5071998;28;19929;-70
2023/09/01 01:25:58;;;;;;;;;;;;;;;;;;5070228;28;19975;-70
2023/09/01 01:28:25;;;;;;;;;;;;;;;;;;5071470;28;20023;-70
2023/09/01 01:30:52;;;;;;;;;;;;;;;;;;5071453;28;19924;-71
2023/09/01 01:33:19;;;;;;;;;;;;;;;;;;5072119;28;19967;-70
2023/09/01 01:35:46;;;;;;;;;;;;;;;;;;5071934;28;20441;-70
2023/09/01 01:38:13;;;;;;;;;;;;;;;;;;5072968;28;19969;-71
2023/09/01 01:40:40;;;;;;;;;;;;;;;;;;5062283;28;20372;-70
2023/09/01 01:43:07;;;;;;;;;;;;;;;;;;5071997;28;19932;-70
2023/09/01 01:45:34;;;;;;;;;;;;;;;;;;5071838;28;19932;-70
2023/09/01 01:48:01;;;;;;;;;;;;;;;;;;5068384;28;19970;-70
2023/09/01 01:50:28;;;;;;;;;;;;;;;;;;5073598;28;20363;-71
2023/09/01 01:52:55;;;;;;;;;;;;;;;;;;5072110;28;19951;-70
2023/09/01 01:55:22;;;;;;;;;;;;;;;;;;5069368;28;19975;-71
2023/09/01 01:57:49;;;;;;;;;;;;;;;;;;5071415;28;20330;-70
2023/09/01 02:00:16;;;;;;;;;;;;;;;;;;5071118;28;19977;-69
2023/09/01 02:02:43;;;;;;;;;;;;;;;;;;5071731;28;19928;-69
2023/09/01 02:05:10;;;;;;;;;;;;;;;;;;5070478;28;19960;-69
2023/09/01 02:07:37;;;;;;;;;;;;;;;;;;5071460;28;19928;-70
2023/09/01 02:10:06;;;;;;;;;;;;;;;;;;5068505;28;20017;-70
2023/09/01 02:12:33;;;;;;;;;;;;;;;;;;5071206;28;19964;-70
2023/09/01 02:15:00;;;;;;;;;;;;;;;;;;5070874;28;19925;-70
2023/09/01 02:17:27;;;;;;;;;;;;;;;;;;5071298;28;20002;-70
2023/09/01 02:19:54;;;;;;;;;;;;;;;;;;5070875;28;19928;-70
2023/09/01 02:22:21;;;;;;;;;;;;;;;;;;5070523;28;20432;-70
2023/09/01 02:24:48;;;;;;;;;;;;;;;;;;5070676;28;19925;-70
2023/09/01 02:27:15;;;;;;;;;;;;;;;;;;5071363;28;19924;-70
2023/09/01 02:29:42;;;;;;;;;;;;;;;;;;5071416;28;19979;-70
2023/09/01 02:32:09;;;;;;;;;;;;;;;;;;5075019;28;19947;-69
2023/09/01 02:34:36;;;;;;;;;;;;;;;;;;5072907;28;19970;-70
2023/09/01 02:37:03;;;;;;;;;;;;;;;;;;5074935;28;20387;-69
2023/09/01 02:39:31;;;;;;;;;;;;;;;;;;5073786;28;19943;-70
2023/09/01 02:42:00;;;;;;;;;;;;;;;;;;5084053;28;19925;-70
2023/09/01 02:44:27;;;;;;;;;;;;;;;;;;5073188;28;19974;-69
2023/09/01 02:46:54;;;;;;;;;;;;;;;;;;5068858;28;20505;-70
2023/09/01 02:49:21;;;;;;;;;;;;;;;;;;5069548;28;19968;-70
2023/09/01 02:51:48;;;;;;;;;;;;;;;;;;5074784;28;19928;-70
2023/09/01 02:54:15;;;;;;;;;;;;;;;;;;5073645;28;20023;-70
2023/09/01 02:56:42;;;;;;;;;;;;;;;;;;5073675;28;20338;-70
2023/09/01 02:59:08;;;;;;;;;;;;;;;;;;5089107;28;19928;-70
2023/09/01 03:01:36;;;;;;;;;;;;;;;;;;5081261;28;19925;-70
2023/09/01 03:04:06;;;;;;;;;;;;;;;;;;5073064;28;19946;-70
2023/09/01 03:06:33;;;;;;;;;;;;;;;;;;5074215;28;19968;-70
2023/09/01 03:09:00;;;;;;;;;;;;;;;;;;5074513;28;19924;-70
2023/09/01 03:11:27;;;;;;;;;;;;;;;;;;5072968;28;20299;-70
2023/09/01 03:13:54;;;;;;;;;;;;;;;;;;5074771;28;20024;-70
2023/09/01 03:16:23;;;;;;;;;;;;;;;;;;5090019;28;19924;-70
2023/09/01 03:18:56;;;;;;;;;;;;;;;;;;5074677;28;19924;-70
2023/09/01 03:21:23;;;;;;;;;;;;;;;;;;5072169;28;19955;-70
2023/09/01 03:23:50;;;;;;;;;;;;;;;;;;5074064;28;19928;-70
2023/09/01 03:26:17;;;;;;;;;;;;;;;;;;5073375;28;19932;-70
2023/09/01 03:28:44;;;;;;;;;;;;;;;;;;5073282;28;19924;-70
2023/09/01 03:31:11;;;;;;;;;;;;;;;;;;5071030;28;19940;-70
2023/09/01 03:33:38;;;;;;;;;;;;;;;;;;5073674;28;19954;-70
2023/09/01 03:36:07;;;;;;;;;;;;;;;;;;5071364;28;19978;-70
2023/09/01 03:38:34;;;;;;;;;;;;;;;;;;5071708;28;19932;-70
2023/09/01 03:41:02;;;;;;;;;;;;;;;;;;5070958;28;19932;-70
2023/09/01 03:43:29;;;;;;;;;;;;;;;;;;5072712;28;19925;-70
2023/09/01 03:45:57;;;;;;;;;;;;;;;;;;5073411;28;19951;-70
2023/09/01 03:48:24;;;;;;;;;;;;;;;;;;5070562;28;19929;-70
2023/09/01 03:50:51;;;;;;;;;;;;;;;;;;5072927;28;19928;-70
2023/09/01 03:53:18;;;;;;;;;;;;;;;;;;5071753;28;19982;-71
2023/09/01 03:55:45;;;;;;;;;;;;;;;;;;5071690;28;19959;-70
2023/09/01 03:58:12;;;;;;;;;;;;;;;;;;5071626;28;20298;-70
2023/09/01 04:00:38;;;;;;;;;;;;;;;;;;5072002;28;19932;-71
2023/09/01 04:03:05;;;;;;;;;;;;;;;;;;5073082;28;19936;-71
2023/09/01 04:05:33;;;;;;;;;;;;;;;;;;5071987;28;19994;-70
2023/09/01 04:08:00;;;;;;;;;;;;;;;;;;5068015;28;19931;-70
2023/09/01 04:10:28;;;;;;;;;;;;;;;;;;5072904;28;19979;-70
2023/09/01 04:12:55;;;;;;;;;;;;;;;;;;5071781;28;19963;-69
2023/09/01 04:15:22;;;;;;;;;;;;;;;;;;5071920;28;19978;-70
2023/09/01 04:17:49;;;;;;;;;;;;;;;;;;5065409;28;19970;-70
2023/09/01 04:20:16;;;;;;;;;;;;;;;;;;5072905;28;19924;-70
2023/09/01 04:22:43;;;;;;;;;;;;;;;;;;5072977;28;20464;-70
2023/09/01 04:25:10;;;;;;;;;;;;;;;;;;5093941;28;19963;-70
2023/09/01 04:27:37;;;;;;;;;;;;;;;;;;5066477;28;20379;-70
2023/09/01 04:30:04;;;;;;;;;;;;;;;;;;5073501;28;19928;-71
2023/09/01 04:32:31;;;;;;;;;;;;;;;;;;5069382;28;19924;-71
2023/09/01 04:35:00;;;;;;;;;;;;;;;;;;5072066;28;19934;-70
2023/09/01 04:37:27;;;;;;;;;;;;;;;;;;5069417;28;20424;-69
2023/09/01 04:39:54;;;;;;;;;;;;;;;;;;5071262;28;19977;-70
2023/09/01 04:42:21;;;;;;;;;;;;;;;;;;5064291;28;19978;-69
2023/09/01 04:44:48;;;;;;;;;;;;;;;;;;5072080;28;19925;-69
2023/09/01 04:47:15;;;;;;;;;;;;;;;;;;5073702;28;19970;-69
2023/09/01 04:49:42;;;;;;;;;;;;;;;;;;5070584;28;19987;-70
2023/09/01 04:52:09;;;;;;;;;;;;;;;;;;5067521;28;19990;-71
2023/09/01 04:54:36;;;;;;;;;;;;;;;;;;5069791;28;19931;-71
2023/09/01 04:57:03;;;;;;;;;;;;;;;;;;5075436;28;19993;-70
2023/09/01 04:59:30;;;;;;;;;;;;;;;;;;5074427;28;19925;-69
2023/09/01 05:01:57;;;;;;;;;;;;;;;;;;5070000;28;19940;-70
2023/09/01 05:04:24;;;;;;;;;;;;;;;;;;5068504;28;19946;-69
2023/09/01 05:06:51;;;;;;;;;;;;;;;;;;5069905;28;19925;-69
2023/09/01 05:09:18;;;;;;;;;;;;;;;;;;5065945;28;19931;-69
2023/09/01 05:11:45;;;;;;;;;;;;;;;;;;5070708;28;19968;-69
2023/09/01 05:14:12;;;;;;;;;;;;;;;;;;5069877;28;19947;-69
2023/09/01 05:16:39;;;;;;;;;;;;;;;;;;5071926;28;19958;-69
2023/09/01 05:19:06;;;;;;;;;;;;;;;;;;5072201;28;19925;-69
2023/09/01 05:21:33;;;;;;;;;;;;;;;;;;5070019;28;19925;-67
2023/09/01 05:24:01;;;;;;;;;;;;;;;;;;5070974;28;19993;-70
2023/09/01 05:26:27;;;;;;;;;;;;;;;;;;5068560;28;20411;-69
2023/09/01 05:28:54;;;;;;;;;;;;;;;;;;5071652;28;19924;-69
2023/09/01 05:31:22;;;;;;;;;;;;;;;;;;5072236;28;19924;-69
2023/09/01 05:33:49;;;;;;;;;;;;;;;;;;5070372;28;19924;-69
2023/09/01 05:36:16;;;;;;;;;;;;;;;;;;5069392;28;19994;-69
2023/09/01 05:38:43;;;;;;;;;;;;;;;;;;5070580;28;19924;-69
2023/09/01 05:41:10;;;;;;;;;;;;;;;;;;5070391;28;19925;-69
2023/09/01 05:43:37;;;;;;;;;;;;;;;;;;5070185;28;19924;-69
2023/09/01 05:46:04;;;;;;;;;;;;;;;;;;5069345;28;19975;-69
2023/09/01 05:48:31;;;;;;;;;;;;;;;;;;5073774;28;19973;-70
2023/09/01 05:50:58;;;;;;;;;;;;;;;;;;5070010;28;19991;-69
2023/09/01 05:53:25;;;;;;;;;;;;;;;;;;5069979;28;20007;-69
2023/09/01 05:55:52;;;;;;;;;;;;;;;;;;5070280;28;19936;-69
2023/09/01 05:58:19;;;;;;;;;;;;;;;;;;5066085;28;20001;-68
2023/09/01 06:00:46;;;;;;;;;;;;;;;;;;5070799;28;19933;-67
2023/09/01 06:03:13;;;;;;;;;;;;;;;;;;5067028;28;20321;-69
2023/09/01 06:05:40;;;;;;;;;;;;;;;;;;5064251;28;19963;-68
2023/09/01 06:08:07;;;;;;;;;;;;;;;;;;5071931;28;20494;-68
2023/09/01 06:10:34;;;;;;;;;;;;;;;;;;5075361;28;19924;-67
2023/09/01 06:13:02;;;;;;;;;;;;;;;;;;5071238;28;20271;-68
2023/09/01 06:15:29;;;;;;;;;;;;;;;;;;5073813;28;19925;-68
2023/09/01 06:17:56;;;;;;;;;;;;;;;;;;5074497;28;20345;-67
2023/09/01 06:20:23;;;;;;;;;;;;;;;;;;5073868;28;19928;-68
2023/09/01 06:22:53;;;;;;;;;;;;;;;;;;5075235;28;19928;-68
2023/09/01 06:25:20;;;;;;;;;;;;;;;;;;5073493;28;19928;-68
2023/09/01 06:27:47;;;;;;;;;;;;;;;;;;5074566;28;19931;-68
2023/09/01 06:30:14;;;;;;;;;;;;;;;;;;5074743;28;20330;-68
2023/09/01 06:32:41;;;;;;;;;;;;;;;;;;5073473;28;19986;-68
2023/09/01 06:35:08;;;;;;;;;;;;;;;;;;5073961;28;19929;-68
2023/09/01 06:37:35;;;;;;;;;;;;;;;;;;5072173;28;19925;-68
2023/09/01 06:40:03;;;;;;;;;;;;;;;;;;5085033;28;19924;-67
2023/09/01 06:42:30;;;;;;;;;;;;;;;;;;5074097;28;19924;-68
2023/09/01 06:44:57;;;;;;;;;;;;;;;;;;5073301;28;19925;-69
2023/09/01 06:47:24;;;;;;;;;;;;;;;;;;5072541;28;19924;-67
2023/09/01 06:49:51;;;;;;;;;;;;;;;;;;5070165;28;19994;-68
2023/09/01 06:52:18;;;;;;;;;;;;;;;;;;5071266;28;19970;-68
2023/09/01 06:54:45;;;;;;;;;;;;;;;;;;5071908;28;20355;-68
2023/09/01 06:57:12;;;;;;;;;;;;;;;;;;5061179;28;19928;-66
2023/09/01 06:59:39;;;;;;;;;;;;;;;;;;5066959;28;19928;-68
2023/09/01 07:02:07;;;;;;;;;;;;;;;;;;5072477;28;19924;-69
2023/09/01 07:04:34;;;;;;;;;;;;;;;;;;5072513;28;20396;-69
2023/09/01 07:07:01;;;;;;;;;;;;;;;;;;5074357;28;19932;-69
2023/09/01 07:09:28;;;;;;;;;;;;;;;;;;5074022;28;20409;-69
2023/09/01 07:11:55;;;;;;;;;;;;;;;;;;5070341;28;20259;-69
2023/09/01 07:14:22;;;;;;;;;;;;;;;;;;5074054;28;19985;-69
2023/09/01 07:16:49;;;;;;;;;;;;;;;;;;5071493;28;20460;-69
2023/09/01 07:19:16;;;;;;;;;;;;;;;;;;5073578;28;19971;-71
2023/09/01 07:21:43;;;;;;;;;;;;;;;;;;5071376;28;19974;-71
2023/09/01 07:24:11;;;;;;;;;;;;;;;;;;5074189;28;19924;-69
2023/09/01 07:26:38;;;;;;;;;;;;;;;;;;5074143;28;19950;-70
2023/09/01 07:29:05;;;;;;;;;;;;;;;;;;5071283;28;19924;-69
2023/09/01 07:31:32;;;;;;;;;;;;;;;;;;5073350;28;19970;-69
2023/09/01 07:33:59;;;;;;;;;;;;;;;;;;5073375;28;20345;-69
2023/09/01 07:36:26;;;;;;;;;;;;;;;;;;5073679;28;20011;-69
2023/09/01 07:38:53;;;;;;;;;;;;;;;;;;5073655;28;19971;-69
2023/09/01 07:41:21;;;;;;;;;;;;;;;;;;5064338;28;19928;-70
2023/09/01 07:43:49;;;;;;;;;;;;;;;;;;5067659;28;20460;-69
2023/09/01 07:46:16;;;;;;;;;;;;;;;;;;5065433;28;20406;-69
2023/09/01 07:48:43;;;;;;;;;;;;;;;;;;5070048;28;19928;-68
2023/09/01 07:51:10;;;;;;;;;;;;;;;;;;5066267;28;20403;-69
2023/09/01 07:53:37;;;;;;;;;;;;;;;;;;5067433;28;19959;-69
2023/09/01 07:56:04;;;;;;;;;;;;;;;;;;5071059;28;20027;-69
2023/09/01 07:58:31;;;;;;;;;;;;;;;;;;5063595;28;20445;-69
2023/09/01 08:00:58;;;;;;;;;;;;;;;;;;5071603;28;19970;-69
2023/09/01 08:03:25;;;;;;;;;;;;;;;;;;5071806;28;19925;-70
2023/09/01 08:05:52;;;;;;;;;;;;;;;;;;5069525;28;19925;-69
2023/09/01 08:08:19;;;;;;;;;;;;;;;;;;5072709;28;19924;-69
2023/09/01 08:10:46;;;;;;;;;;;;;;;;;;5072855;28;19925;-69
2023/09/01 08:13:13;;;;;;;;;;;;;;;;;;5069484;28;19946;-70
2023/09/01 08:15:40;;;;;;;;;;;;;;;;;;5072227;28;19924;-68
2023/09/01 08:18:07;;;;;;;;;;;;;;;;;;5070899;28;19928;-68
2023/09/01 08:20:34;;;;;;;;;;;;;;;;;;5072229;28;20387;-68
2023/09/01 08:23:01;;;;;;;;;;;;;;;;;;5070130;28;19985;-68
2023/09/01 08:25:28;;;;;;;;;;;;;;;;;;5064009;28;19924;-68
2023/09/01 08:27:55;;;;;;;;;;;;;;;;;;5064294;28;19967;-68
2023/09/01 08:30:23;;;;;;;;;;;;;;;;;;5065227;28;19978;-70
2023/09/01 08:32:50;;;;;;;;;;;;;;;;;;5069581;28;19935;-71
2023/09/01 08:35:17;;;;;;;;;;;;;;;;;;5055206;28;19925;-72
2023/09/01 08:37:44;;;;;;;;;;;;;;;;;;5070457;28;19998;-69
2023/09/01 08:40:11;;;;;;;;;;;;;;;;;;5068984;28;19933;-70
2023/09/01 08:42:38;;;;;;;;;;;;;;;;;;5071107;28;19925;-70
2023/09/01 08:45:05;;;;;;;;;;;;;;;;;;5071780;28;20345;-70
2023/09/01 08:47:32;;;;;;;;;;;;;;;;;;5069782;28;19924;-69
2023/09/01 08:49:59;;;;;;;;;;;;;;;;;;5070320;28;20009;-69
2023/09/01 08:52:26;;;;;;;;;;;;;;;;;;5067842;28;20492;-69
2023/09/01 08:54:53;;;;;;;;;;;;;;;;;;5075552;28;19970;-69
2023/09/01 08:57:21;;;;;;;;;;;;;;;;;;5063405;28;19968;-71
2023/09/01 08:59:48;;;;;;;;;;;;;;;;;;5063758;28;20268;-69
2023/09/01 09:02:15;;;;;;;;;;;;;;;;;;5069253;28;19970;-69
2023/09/01 09:04:42;;;;;;;;;;;;;;;;;;5071676;28;20372;-69
2023/09/01 09:07:09;;;;;;;;;;;;;;;;;;5072256;28;19925;-69
2023/09/01 09:09:37;;;;;;;;;;;;;;;;;;5069755;28;19924;-68
2023/09/01 09:12:04;;;;;;;;;;;;;;;;;;5071245;28;19929;-70
2023/09/01 09:14:32;;;;;;;;;;;;;;;;;;5071570;28;19932;-68
2023/09/01 09:16:59;;;;;;;;;;;;;;;;;;5069545;28;20292;-69
2023/09/01 09:19:26;;;;;;;;;;;;;;;;;;5074410;28;19928;-68
2023/09/01 09:21:53;;;;;;;;;;;;;;;;;;5065620;28;20304;-69
2023/09/01 09:24:20;;;;;;;;;;;;;;;;;;5069682;28;19970;-69
2023/09/01 09:26:47;;;;;;;;;;;;;;;;;;5070467;28;19932;-69
2023/09/01 09:29:15;;;;;;;;;;;;;;;;;;5071270;28;19947;-68
2023/09/01 09:31:44;;;;;;;;;;;;;;;;;;5070533;28;19955;-67
2023/09/01 09:34:11;;;;;;;;;;;;;;;;;;5069526;28;19924;-68
2023/09/01 09:36:38;;;;;;;;;;;;;;;;;;5069244;28;20046;-68
2023/09/01 09:39:06;;;;;;;;;;;;;;;;;;5064629;28;19924;-68
2023/09/01 09:41:33;;;;;;;;;;;;;;;;;;5062128;28;19978;-69
2023/09/01 09:44:00;;;;;;;;;;;;;;;;;;5071332;28;19924;-69
2023/09/01 09:46:27;;;;;;;;;;;;;;;;;;5071772;28;20419;-69
2023/09/01 09:48:56;;;;;;;;;;;;;;;;;;5071727;28;19951;-69
2023/09/01 09:51:23;;;;;;;;;;;;;;;;;;5070487;28;19929;-68
2023/09/01 09:53:50;;;;;;;;;;;;;;;;;;5070335;28;19995;-69
2023/09/01 09:56:17;;;;;;;;;;;;;;;;;;5069011;28;19970;-68
2023/09/01 09:58:44;;;;;;;;;;;;;;;;;;5065901;28;19970;-68
2023/09/01 10:01:11;;;;;;;;;;;;;;;;;;5063062;28;19924;-68
2023/09/01 10:03:38;;;;;;;;;;;;;;;;;;5077382;28;20343;-68
2023/09/01 10:06:05;;;;;;;;;;;;;;;;;;5070434;28;19931;-68
2023/09/01 10:08:32;;;;;;;;;;;;;;;;;;5068594;28;19989;-68
2023/09/01 10:10:59;;;;;;;;;;;;;;;;;;5067378;28;20306;-69
2023/09/01 10:13:26;;;;;;;;;;;;;;;;;;5072246;28;19970;-70
2023/09/01 10:15:53;;;;;;;;;;;;;;;;;;5064728;28;19932;-68
2023/09/01 10:18:20;;;;;;;;;;;;;;;;;;5065056;28;20011;-68
2023/09/01 10:20:47;;;;;;;;;;;;;;;;;;5079141;28;19978;-68
2023/09/01 10:23:14;;;;;;;;;;;;;;;;;;5070671;28;19970;-71
2023/09/01 10:25:41;;;;;;;;;;;;;;;;;;5067162;28;20345;-69
2023/09/01 10:28:10;;;;;;;;;;;;;;;;;;5070139;28;19925;-69
2023/09/01 10:30:37;;;;;;;;;;;;;;;;;;5070172;28;19944;-68
2023/09/01 10:33:05;;;;;;;;;;;;;;;;;;5070137;28;19924;-68
2023/09/01 10:35:32;;;;;;;;;;;;;;;;;;5071271;28;20024;-69
2023/09/01 10:37:59;;;;;;;;;;;;;;;;;;5067582;28;19929;-69
2023/09/01 10:40:27;;;;;;;;;;;;;;;;;;5068448;28;19986;-69
2023/09/01 10:42:55;;;;;;;;;;;;;;;;;;5070695;28;19931;-70
2023/09/01 10:45:22;;;;;;;;;;;;;;;;;;5071335;28;20268;-68
2023/09/01 10:47:52;;;;;;;;;;;;;;;;;;5067432;28;19924;-69
2023/09/01 10:50:19;;;;;;;;;;;;;;;;;;5067067;28;20355;-69
2023/09/01 10:52:46;;;;;;;;;;;;;;;;;;5073617;28;19924;-70
2023/09/01 10:55:13;;;;;;;;;;;;;;;;;;5075018;28;19970;-69
2023/09/01 10:57:40;;;;;;;;;;;;;;;;;;5070367;28;19925;-69
2023/09/01 11:00:09;;;;;;;;;;;;;;;;;;5073671;28;19976;-69
2023/09/01 11:02:36;;;;;;;;;;;;;;;;;;5072028;28;19989;-70
2023/09/01 11:05:03;;;;;;;;;;;;;;;;;;5073666;28;19925;-70
2023/09/01 11:07:31;;;;;;;;;;;;;;;;;;5071669;28;19924;-70
2023/09/01 11:09:58;;;;;;;;;;;;;;;;;;5072125;28;19928;-67
2023/09/01 11:12:25;;;;;;;;;;;;;;;;;;5069839;28;19924;-68
2023/09/01 11:14:53;;;;;;;;;;;;;;;;;;5064577;28;19985;-69
2023/09/01 11:17:20;;;;;;;;;;;;;;;;;;5073187;28;19931;-69
2023/09/01 11:19:47;;;;;;;;;;;;;;;;;;5073314;28;19932;-71
2023/09/01 11:22:14;;;;;;;;;;;;;;;;;;5071428;28;19925;-70
2023/09/01 11:24:41;;;;;;;;;;;;;;;;;;5070744;28;20260;-73
2023/09/01 11:27:10;;;;;;;;;;;;;;;;;;5070603;28;19924;-72
2023/09/01 11:29:37;;;;;;;;;;;;;;;;;;5068162;28;20388;-73
2023/09/01 11:32:04;;;;;;;;;;;;;;;;;;5073002;28;19928;-72
2023/09/01 11:34:31;;;;;;;;;;;;;;;;;;5067309;28;19986;-71
2023/09/01 11:36:58;;;;;;;;;;;;;;;;;;5064006;28;19925;-69
2023/09/01 11:39:25;;;;;;;;;;;;;;;;;;5071009;28;19986;-69
2023/09/01 11:41:52;;;;;;;;;;;;;;;;;;5069228;28;19931;-70
2023/09/01 11:44:19;;;;;;;;;;;;;;;;;;5069121;28;19939;-69
2023/09/01 11:46:46;;;;;;;;;;;;;;;;;;5063760;28;20013;-69
2023/09/01 11:49:13;;;;;;;;;;;;;;;;;;5069716;28;19970;-68
2023/09/01 11:51:40;;;;;;;;;;;;;;;;;;5071406;28;19924;-72
2023/09/01 11:54:07;;;;;;;;;;;;;;;;;;5071257;28;19976;-71
2023/09/01 11:56:34;;;;;;;;;;;;;;;;;;5073149;28;19933;-70
2023/09/01 11:59:01;;;;;;;;;;;;;;;;;;5072153;28;19924;-70
2023/09/01 12:01:29;;;;;;;;;;;;;;;;;;5073559;28;19970;-69
2023/09/01 12:03:57;;;;;;;;;;;;;;;;;;5073917;28;20387;-68
2023/09/01 12:06:24;;;;;;;;;;;;;;;;;;5066641;28;20464;-70
2023/09/01 12:08:51;;;;;;;;;;;;;;;;;;5071635;28;19928;-70
2023/09/01 12:11:18;;;;;;;;;;;;;;;;;;5072982;28;19925;-70
2023/09/01 12:13:45;;;;;;;;;;;;;;;;;;5072168;28;19929;-71
2023/09/01 12:16:12;;;;;;;;;;;;;;;;;;5071007;28;20268;-70
2023/09/01 12:18:39;;;;;;;;;;;;;;;;;;5067750;28;19924;-71
2023/09/01 12:21:06;;;;;;;;;;;;;;;;;;5058296;28;19972;-70
2023/09/01 12:23:33;;;;;;;;;;;;;;;;;;5071974;28;19933;-70
2023/09/01 12:26:01;;;;;;;;;;;;;;;;;;5071872;28;19934;-70
2023/09/01 12:28:28;;;;;;;;;;;;;;;;;;5073099;28;20394;-71
2023/09/01 12:30:55;;;;;;;;;;;;;;;;;;5062258;28;19929;-72
2023/09/01 12:33:22;;;;;;;;;;;;;;;;;;5062144;28;20345;-72
2023/09/01 12:35:49;;;;;;;;;;;;;;;;;;5070169;28;19925;-70
2023/09/01 12:38:16;;;;;;;;;;;;;;;;;;5069626;28;19932;-68
2023/09/01 12:40:43;;;;;;;;;;;;;;;;;;5071774;28;19943;-67
2023/09/01 12:43:10;;;;;;;;;;;;;;;;;;5070466;28;19971;-68
2023/09/01 12:45:37;;;;;;;;;;;;;;;;;;5071779;28;19998;-71
2023/09/01 12:48:04;;;;;;;;;;;;;;;;;;5068043;28;19937;-69
2023/09/01 12:50:31;;;;;;;;;;;;;;;;;;5071433;28;19924;-65
2023/09/01 12:52:58;;;;;;;;;;;;;;;;;;5071373;28;19928;-66
2023/09/01 12:55:25;;;;;;;;;;;;;;;;;;5060422;28;19970;-66
2023/09/01 12:57:52;;;;;;;;;;;;;;;;;;5069352;28;19976;-73
2023/09/01 13:00:19;;;;;;;;;;;;;;;;;;5072273;28;19924;-69
2023/09/01 13:02:46;;;;;;;;;;;;;;;;;;5065401;28;19985;-70
2023/09/01 13:05:13;;;;;;;;;;;;;;;;;;5068136;28;19980;-71
2023/09/01 13:07:40;;;;;;;;;;;;;;;;;;5067297;28;19929;-72
2023/09/01 13:10:07;;;;;;;;;;;;;;;;;;5071478;28;19928;-71
2023/09/01 13:12:34;;;;;;;;;;;;;;;;;;5069425;28;20437;-71
2023/09/01 13:15:02;;;;;;;;;;;;;;;;;;5059993;28;20024;-71
2023/09/01 13:17:29;;;;;;;;;;;;;;;;;;5063926;28;19924;-70
2023/09/01 13:19:56;;;;;;;;;;;;;;;;;;5069940;28;19936;-72
2023/09/01 13:22:25;;;;;;;;;;;;;;;;;;5067654;28;19929;-69
2023/09/01 13:24:52;;;;;;;;;;;;;;;;;;5068427;28;19943;-70
2023/09/01 13:27:19;;;;;;;;;;;;;;;;;;5059108;28;20497;-70
2023/09/01 13:29:46;;;;;;;;;;;;;;;;;;5061308;28;19924;-70
2023/09/01 13:32:13;;;;;;;;;;;;;;;;;;5062703;28;19924;-71
2023/09/01 13:34:40;;;;;;;;;;;;;;;;;;5065113;28;20019;-71
2023/09/01 13:37:07;;;;;;;;;;;;;;;;;;5068782;28;19933;-71
2023/09/01 13:39:34;;;;;;;;;;;;;;;;;;5067678;28;19925;-71
2023/09/01 13:42:01;;;;;;;;;;;;;;;;;;5067926;28;20025;-72
2023/09/01 13:44:29;;;;;;;;;;;;;;;;;;5062455;28;19933;-71
2023/09/01 13:46:56;;;;;;;;;;;;;;;;;;5066653;28;19938;-71
2023/09/01 13:49:23;;;;;;;;;;;;;;;;;;5063913;28;19925;-69
2023/09/01 13:51:50;;;;;;;;;;;;;;;;;;5067118;28;19951;-71
2023/09/01 13:54:17;;;;;;;;;;;;;;;;;;5066724;28;19925;-71
2023/09/01 13:56:44;;;;;;;;;;;;;;;;;;5068289;28;20012;-70
2023/09/01 13:59:11;;;;;;;;;;;;;;;;;;5065945;28;19947;-70
2023/09/01 14:01:39;;;;;;;;;;;;;;;;;;5064572;28;19939;-70
2023/09/01 14:04:06;;;;;;;;;;;;;;;;;;5069443;28;19928;-72
2023/09/01 14:06:33;;;;;;;;;;;;;;;;;;5070515;28;19932;-72
2023/09/01 14:09:03;;;;;;;;;;;;;;;;;;5062408;28;19994;-71
2023/09/01 14:11:31;;;;;;;;;;;;;;;;;;5064267;28;19928;-71
2023/09/01 14:13:58;;;;;;;;;;;;;;;;;;5068873;28;19924;-73
2023/09/01 14:16:25;;;;;;;;;;;;;;;;;;5068272;28;19956;-71
2023/09/01 14:18:54;;;;;;;;;;;;;;;;;;5067302;28;19935;-72
2023/09/01 14:21:21;;;;;;;;;;;;;;;;;;5064322;28;19929;-72
2023/09/01 14:23:48;;;;;;;;;;;;;;;;;;5060470;28;19986;-72
2023/09/01 14:26:16;;;;;;;;;;;;;;;;;;5059258;28;19925;-71
2023/09/01 14:28:43;;;;;;;;;;;;;;;;;;5071789;28;19963;-71
2023/09/01 14:31:10;;;;;;;;;;;;;;;;;;5068813;28;19932;-69
2023/09/01 14:33:37;;;;;;;;;;;;;;;;;;5063406;28;20398;-71
2023/09/01 14:36:04;;;;;;;;;;;;;;;;;;5070676;28;19956;-69
2023/09/01 14:38:32;;;;;;;;;;;;;;;;;;5062477;28;20298;-70
2023/09/01 14:40:59;;;;;;;;;;;;;;;;;;5070790;28;19924;-70
2023/09/01 14:43:28;;;;;;;;;;;;;;;;;;5067119;28;20337;-73
2023/09/01 14:45:55;;;;;;;;;;;;;;;;;;5066186;28;20006;-71
2023/09/01 14:48:22;;;;;;;;;;;;;;;;;;5069867;28;19978;-71
2023/09/01 14:50:49;;;;;;;;;;;;;;;;;;5069965;28;19924;-71
2023/09/01 14:53:16;;;;;;;;;;;;;;;;;;5075997;28;19931;-72
2023/09/01 14:55:43;;;;;;;;;;;;;;;;;;5072707;28;19978;-72
2023/09/01 14:58:10;;;;;;;;;;;;;;;;;;5072085;28;19970;-68
2023/09/01 15:00:37;;;;;;;;;;;;;;;;;;5074437;28;19983;-69
2023/09/01 15:03:04;;;;;;;;;;;;;;;;;;5073714;28;20397;-67
2023/09/01 15:05:31;;;;;;;;;;;;;;;;;;5068517;28;19985;-68
2023/09/01 15:07:58;;;;;;;;;;;;;;;;;;5071012;28;19928;-69
2023/09/01 15:10:25;;;;;;;;;;;;;;;;;;5058893;28;20372;-69
2023/09/01 15:12:52;;;;;;;;;;;;;;;;;;5067323;28;19925;-69
2023/09/01 15:15:19;;;;;;;;;;;;;;;;;;5069884;28;19925;-70
2023/09/01 15:17:46;;;;;;;;;;;;;;;;;;5070920;28;19924;-70
2023/09/01 15:20:13;;;;;;;;;;;;;;;;;;5067251;28;19936;-71
2023/09/01 15:22:41;;;;;;;;;;;;;;;;;;5064901;28;19931;-71
2023/09/01 15:25:08;;;;;;;;;;;;;;;;;;5070092;28;19936;-71
2023/09/01 15:27:35;;;;;;;;;;;;;;;;;;5062796;28;19925;-70
2023/09/01 15:30:02;;;;;;;;;;;;;;;;;;5070435;28;20318;-71
2023/09/01 15:32:30;;;;;;;;;;;;;;;;;;5063201;28;20442;-71
2023/09/01 15:34:57;;;;;;;;;;;;;;;;;;5066612;28;19986;-69
2023/09/01 15:37:24;;;;;;;;;;;;;;;;;;5061815;28;20006;-70
2023/09/01 15:39:51;;;;;;;;;;;;;;;;;;5062608;28;19925;-69
2023/09/01 15:42:18;;;;;;;;;;;;;;;;;;5066427;28;19976;-70
2023/09/01 15:44:46;;;;;;;;;;;;;;;;;;5058055;28;19924;-70
2023/09/01 15:47:14;;;;;;;;;;;;;;;;;;5065654;28;20027;-71
2023/09/01 15:49:41;;;;;;;;;;;;;;;;;;5068263;28;19964;-71
2023/09/01 15:52:08;;;;;;;;;;;;;;;;;;5062479;28;19971;-70
2023/09/01 15:54:35;;;;;;;;;;;;;;;;;;5071018;28;20529;-71
2023/09/01 15:57:02;;;;;;;;;;;;;;;;;;5074860;28;19924;-71
2023/09/01 15:59:29;;;;;;;;;;;;;;;;;;5074494;28;19925;-71
2023/09/01 16:01:57;;;;;;;;;;;;;;;;;;5071095;28;20376;-71
2023/09/01 16:04:24;;;;;;;;;;;;;;;;;;5074078;28;20015;-71
2023/09/01 16:06:51;;;;;;;;;;;;;;;;;;5070411;28;19924;-71
2023/09/01 16:09:18;;;;;;;;;;;;;;;;;;5074048;28;20395;-70
2023/09/01 16:11:45;;;;;;;;;;;;;;;;;;5070695;28;19978;-70
2023/09/01 16:14:12;;;;;;;;;;;;;;;;;;5067292;28;19932;-70
2023/09/01 16:16:39;;;;;;;;;;;;;;;;;;5071527;28;19979;-70
2023/09/01 16:19:06;;;;;;;;;;;;;;;;;;5068383;28;20002;-69
2023/09/01 16:21:33;;;;;;;;;;;;;;;;;;5071028;28;19937;-69
2023/09/01 16:24:00;;;;;;;;;;;;;;;;;;5069980;28;19924;-71
2023/09/01 16:26:27;;;;;;;;;;;;;;;;;;5066818;28;19931;-70
2023/09/01 16:28:54;;;;;;;;;;;;;;;;;;5072442;28;19925;-70
2023/09/01 16:31:21;;;;;;;;;;;;;;;;;;5077793;22;20276;-71
2023/09/01 16:33:48;;;;;;;;;;;;;;;;;;5106996;28;20001;-71
2023/09/01 16:36:15;;;;;;;;;;;;;;;;;;5111102;28;19924;-71
2023/09/01 16:38:42;;;;;;;;;;;;;;;;;;5109841;28;19924;-71
2023/09/01 16:41:09;;;;;;;;;;;;;;;;;;5109245;28;19923;-72
2023/09/01 16:43:36;;;;;;;;;;;;;;;;;;5113498;28;19924;-71
2023/09/01 16:46:03;;;;;;;;;;;;;;;;;;5112985;28;19924;-71